sensor_id;sensor_type;location;lat;lon;timestamp;P1;durP1;ratioP1;P2;durP2;ratioP2
21014;SDS011;19207;-23.482;-46.500;2023-03-23T00:01:20;12.50;;;7.22;;
21014;SDS011;19207;-23.482;-46.500;2023-03-23T00:04:07;12.10;;;7.10;;
21014;SDS011;19207;-23.482;-46.500;2023-03-23T00:06:57;11.00;;;6.93;;
21014;SDS011;19207;-23.482;-46.500;2023-03-23T00:09:48;8.60;;;6.62;;
21014;SDS011;19207;-23.482;-46.500;2023-03-23T00:12:38;8.68;;;6.70;;
21014;SDS011;19207;-23.482;-46.500;2023-03-23T00:15:27;12.60;;;6.68;;
21014;SDS011;19207;-23.482;-46.500;2023-03-23T00:18:18;10.60;;;7.32;;
21014;SDS011;19207;-23.482;-46.500;2023-03-23T00:21:08;9.90;;;6.30;;
21014;SDS011;19207;-23.482;-46.500;2023-03-23T00:23:55;13.45;;;6.35;;
21014;SDS011;19207;-23.482;-46.500;2023-03-23T00:26:43;11.80;;;6.20;;
21014;SDS011;19207;-23.482;-46.500;2023-03-23T00:29:30;18.95;;;8.20;;
21014;SDS011;19207;-23.482;-46.500;2023-03-23T00:32:17;22.48;;;8.07;;
21014;SDS011;19207;-23.482;-46.500;2023-03-23T00:35:05;17.67;;;7.28;;
21014;SDS011;19207;-23.482;-46.500;2023-03-23T00:37:52;13.38;;;7.20;;
21014;SDS011;19207;-23.482;-46.500;2023-03-23T00:40:40;12.13;;;6.80;;
21014;SDS011;19207;-23.482;-46.500;2023-03-23T00:43:27;11.82;;;6.85;;
21014;SDS011;19207;-23.482;-46.500;2023-03-23T00:46:14;14.13;;;6.82;;
21014;SDS011;19207;-23.482;-46.500;2023-03-23T00:49:00;15.70;;;7.95;;
21014;SDS011;19207;-23.482;-46.500;2023-03-23T00:51:47;16.62;;;6.90;;
21014;SDS011;19207;-23.482;-46.500;2023-03-23T00:54:34;12.35;;;6.90;;
21014;SDS011;19207;-23.482;-46.500;2023-03-23T00:57:23;11.35;;;7.20;;
21014;SDS011;19207;-23.482;-46.500;2023-03-23T01:00:10;13.35;;;9.05;;
21014;SDS011;19207;-23.482;-46.500;2023-03-23T01:02:57;12.55;;;7.30;;
21014;SDS011;19207;-23.482;-46.500;2023-03-23T01:05:44;11.57;;;7.45;;
21014;SDS011;19207;-23.482;-46.500;2023-03-23T01:08:36;13.75;;;6.75;;
21014;SDS011;19207;-23.482;-46.500;2023-03-23T01:11:24;9.27;;;6.72;;
21014;SDS011;19207;-23.482;-46.500;2023-03-23T01:14:12;8.73;;;6.28;;
21014;SDS011;19207;-23.482;-46.500;2023-03-23T01:16:59;12.82;;;7.03;;
21014;SDS011;19207;-23.482;-46.500;2023-03-23T01:19:46;9.52;;;6.57;;
21014;SDS011;19207;-23.482;-46.500;2023-03-23T01:22:33;14.65;;;6.68;;
21014;SDS011;19207;-23.482;-46.500;2023-03-23T01:25:19;11.52;;;7.03;;
21014;SDS011;19207;-23.482;-46.500;2023-03-23T01:28:06;14.43;;;7.43;;
21014;SDS011;19207;-23.482;-46.500;2023-03-23T01:30:59;11.65;;;7.97;;
21014;SDS011;19207;-23.482;-46.500;2023-03-23T01:33:47;11.70;;;7.00;;
21014;SDS011;19207;-23.482;-46.500;2023-03-23T01:36:37;10.77;;;7.15;;
21014;SDS011;19207;-23.482;-46.500;2023-03-23T01:39:24;9.55;;;7.55;;
21014;SDS011;19207;-23.482;-46.500;2023-03-23T01:42:11;11.25;;;6.97;;
21014;SDS011;19207;-23.482;-46.500;2023-03-23T01:48:06;9.00;;;6.95;;
21014;SDS011;19207;-23.482;-46.500;2023-03-23T01:50:58;11.38;;;6.57;;
21014;SDS011;19207;-23.482;-46.500;2023-03-23T01:53:57;9.73;;;6.95;;
21014;SDS011;19207;-23.482;-46.500;2023-03-23T01:57:05;8.75;;;7.05;;
21014;SDS011;19207;-23.482;-46.500;2023-03-23T01:59:54;14.68;;;6.97;;
21014;SDS011;19207;-23.482;-46.500;2023-03-23T02:02:44;15.88;;;6.78;;
21014;SDS011;19207;-23.482;-46.500;2023-03-23T02:05:38;9.65;;;7.25;;
21014;SDS011;19207;-23.482;-46.500;2023-03-23T02:08:28;16.58;;;8.65;;
21014;SDS011;19207;-23.482;-46.500;2023-03-23T02:11:16;30.35;;;14.48;;
21014;SDS011;19207;-23.482;-46.500;2023-03-23T02:14:03;16.42;;;9.15;;
21014;SDS011;19207;-23.482;-46.500;2023-03-23T02:34:10;13.80;;;9.00;;
21014;SDS011;19207;-23.482;-46.500;2023-03-23T02:37:11;19.30;;;8.82;;
21014;SDS011;19207;-23.482;-46.500;2023-03-23T02:40:10;17.30;;;8.98;;
21014;SDS011;19207;-23.482;-46.500;2023-03-23T02:42:58;20.75;;;9.63;;
21014;SDS011;19207;-23.482;-46.500;2023-03-23T02:45:50;15.55;;;10.50;;
21014;SDS011;19207;-23.482;-46.500;2023-03-23T02:48:38;23.52;;;10.88;;
21014;SDS011;19207;-23.482;-46.500;2023-03-23T02:51:25;20.17;;;12.40;;
21014;SDS011;19207;-23.482;-46.500;2023-03-23T02:54:13;21.55;;;11.30;;
21014;SDS011;19207;-23.482;-46.500;2023-03-23T02:57:01;19.95;;;12.55;;
21014;SDS011;19207;-23.482;-46.500;2023-03-23T02:59:49;20.55;;;11.60;;
21014;SDS011;19207;-23.482;-46.500;2023-03-23T03:02:36;18.92;;;12.20;;
21014;SDS011;19207;-23.482;-46.500;2023-03-23T03:05:38;22.70;;;12.07;;
21014;SDS011;19207;-23.482;-46.500;2023-03-23T03:08:32;19.37;;;11.40;;
21014;SDS011;19207;-23.482;-46.500;2023-03-23T03:11:24;21.27;;;11.75;;
21014;SDS011;19207;-23.482;-46.500;2023-03-23T03:14:13;20.48;;;11.18;;
21014;SDS011;19207;-23.482;-46.500;2023-03-23T03:17:10;21.05;;;13.70;;
21014;SDS011;19207;-23.482;-46.500;2023-03-23T03:20:02;23.15;;;13.73;;
21014;SDS011;19207;-23.482;-46.500;2023-03-23T03:22:55;35.25;;;19.85;;
21014;SDS011;19207;-23.482;-46.500;2023-03-23T03:25:43;37.22;;;20.33;;
21014;SDS011;19207;-23.482;-46.500;2023-03-23T03:28:32;26.30;;;14.07;;
21014;SDS011;19207;-23.482;-46.500;2023-03-23T03:31:29;26.00;;;12.75;;
21014;SDS011;19207;-23.482;-46.500;2023-03-23T03:34:18;24.87;;;14.32;;
21014;SDS011;19207;-23.482;-46.500;2023-03-23T03:37:05;24.00;;;13.13;;
21014;SDS011;19207;-23.482;-46.500;2023-03-23T03:39:53;26.67;;;14.27;;
21014;SDS011;19207;-23.482;-46.500;2023-03-23T03:42:40;19.58;;;13.40;;
21014;SDS011;19207;-23.482;-46.500;2023-03-23T03:45:28;24.75;;;14.00;;
21014;SDS011;19207;-23.482;-46.500;2023-03-23T03:48:15;19.85;;;12.30;;
21014;SDS011;19207;-23.482;-46.500;2023-03-23T03:51:02;21.17;;;12.55;;
21014;SDS011;19207;-23.482;-46.500;2023-03-23T03:53:49;18.25;;;10.30;;
21014;SDS011;19207;-23.482;-46.500;2023-03-23T03:56:37;18.90;;;10.63;;
21014;SDS011;19207;-23.482;-46.500;2023-03-23T03:59:25;20.25;;;10.60;;
21014;SDS011;19207;-23.482;-46.500;2023-03-23T04:02:13;18.42;;;11.20;;
21014;SDS011;19207;-23.482;-46.500;2023-03-23T04:05:05;27.60;;;10.93;;
21014;SDS011;19207;-23.482;-46.500;2023-03-23T04:07:54;18.23;;;10.77;;
21014;SDS011;19207;-23.482;-46.500;2023-03-23T04:10:46;19.25;;;11.75;;
21014;SDS011;19207;-23.482;-46.500;2023-03-23T04:13:33;21.80;;;12.98;;
21014;SDS011;19207;-23.482;-46.500;2023-03-23T04:16:20;24.83;;;12.18;;
21014;SDS011;19207;-23.482;-46.500;2023-03-23T04:19:08;17.20;;;11.90;;
21014;SDS011;19207;-23.482;-46.500;2023-03-23T04:21:55;19.77;;;12.37;;
21014;SDS011;19207;-23.482;-46.500;2023-03-23T04:24:43;23.55;;;13.57;;
21014;SDS011;19207;-23.482;-46.500;2023-03-23T04:27:30;24.02;;;13.57;;
21014;SDS011;19207;-23.482;-46.500;2023-03-23T04:30:18;44.67;;;16.20;;
21014;SDS011;19207;-23.482;-46.500;2023-03-23T04:33:06;28.35;;;15.90;;
21014;SDS011;19207;-23.482;-46.500;2023-03-23T04:35:55;37.83;;;15.48;;
21014;SDS011;19207;-23.482;-46.500;2023-03-23T04:38:43;32.22;;;16.73;;
21014;SDS011;19207;-23.482;-46.500;2023-03-23T04:41:30;33.38;;;17.85;;
21014;SDS011;19207;-23.482;-46.500;2023-03-23T04:44:17;26.52;;;15.02;;
21014;SDS011;19207;-23.482;-46.500;2023-03-23T04:47:06;32.53;;;15.25;;
21014;SDS011;19207;-23.482;-46.500;2023-03-23T04:49:57;27.30;;;15.18;;
21014;SDS011;19207;-23.482;-46.500;2023-03-23T04:52:45;26.10;;;16.40;;
21014;SDS011;19207;-23.482;-46.500;2023-03-23T04:55:33;32.60;;;17.30;;
21014;SDS011;19207;-23.482;-46.500;2023-03-23T04:58:23;39.75;;;17.48;;
21014;SDS011;19207;-23.482;-46.500;2023-03-23T05:01:10;34.63;;;18.15;;
21014;SDS011;19207;-23.482;-46.500;2023-03-23T05:04:00;37.10;;;18.45;;
21014;SDS011;19207;-23.482;-46.500;2023-03-23T05:06:47;32.38;;;16.85;;
21014;SDS011;19207;-23.482;-46.500;2023-03-23T05:09:36;34.08;;;16.87;;
21014;SDS011;19207;-23.482;-46.500;2023-03-23T05:12:23;33.15;;;16.80;;
21014;SDS011;19207;-23.482;-46.500;2023-03-23T05:15:10;43.63;;;20.08;;
21014;SDS011;19207;-23.482;-46.500;2023-03-23T05:17:57;36.47;;;22.27;;
21014;SDS011;19207;-23.482;-46.500;2023-03-23T05:20:44;38.90;;;23.30;;
21014;SDS011;19207;-23.482;-46.500;2023-03-23T05:23:31;44.17;;;22.42;;
21014;SDS011;19207;-23.482;-46.500;2023-03-23T05:26:19;42.85;;;24.37;;
21014;SDS011;19207;-23.482;-46.500;2023-03-23T05:29:05;44.08;;;28.08;;
21014;SDS011;19207;-23.482;-46.500;2023-03-23T05:31:52;48.85;;;31.05;;
21014;SDS011;19207;-23.482;-46.500;2023-03-23T05:34:40;50.22;;;30.62;;
21014;SDS011;19207;-23.482;-46.500;2023-03-23T05:37:28;55.05;;;34.35;;
21014;SDS011;19207;-23.482;-46.500;2023-03-23T05:40:17;45.67;;;29.75;;
21014;SDS011;19207;-23.482;-46.500;2023-03-23T05:43:06;46.03;;;28.33;;
21014;SDS011;19207;-23.482;-46.500;2023-03-23T05:45:53;49.50;;;27.48;;
21014;SDS011;19207;-23.482;-46.500;2023-03-23T05:48:40;44.38;;;23.55;;
21014;SDS011;19207;-23.482;-46.500;2023-03-23T05:51:27;43.92;;;22.05;;
21014;SDS011;19207;-23.482;-46.500;2023-03-23T05:54:15;39.67;;;23.83;;
21014;SDS011;19207;-23.482;-46.500;2023-03-23T05:57:02;37.95;;;22.70;;
21014;SDS011;19207;-23.482;-46.500;2023-03-23T05:59:50;36.95;;;23.48;;
21014;SDS011;19207;-23.482;-46.500;2023-03-23T06:02:37;39.83;;;22.55;;
21014;SDS011;19207;-23.482;-46.500;2023-03-23T06:05:24;35.95;;;22.52;;
21014;SDS011;19207;-23.482;-46.500;2023-03-23T06:08:11;44.50;;;25.05;;
21014;SDS011;19207;-23.482;-46.500;2023-03-23T06:11:00;54.22;;;30.02;;
21014;SDS011;19207;-23.482;-46.500;2023-03-23T06:13:47;59.42;;;38.55;;
21014;SDS011;19207;-23.482;-46.500;2023-03-23T06:16:33;64.40;;;39.28;;
21014;SDS011;19207;-23.482;-46.500;2023-03-23T06:19:20;65.25;;;42.97;;
21014;SDS011;19207;-23.482;-46.500;2023-03-23T06:22:08;64.87;;;39.33;;
21014;SDS011;19207;-23.482;-46.500;2023-03-23T06:24:56;62.92;;;35.78;;
21014;SDS011;19207;-23.482;-46.500;2023-03-23T06:27:43;70.12;;;41.17;;
21014;SDS011;19207;-23.482;-46.500;2023-03-23T06:30:31;56.00;;;32.28;;
21014;SDS011;19207;-23.482;-46.500;2023-03-23T06:33:18;43.08;;;24.17;;
21014;SDS011;19207;-23.482;-46.500;2023-03-23T06:36:06;40.22;;;24.15;;
21014;SDS011;19207;-23.482;-46.500;2023-03-23T06:38:54;77.90;;;41.47;;
21014;SDS011;19207;-23.482;-46.500;2023-03-23T06:41:41;96.47;;;49.85;;
21014;SDS011;19207;-23.482;-46.500;2023-03-23T06:44:28;90.07;;;50.42;;
21014;SDS011;19207;-23.482;-46.500;2023-03-23T06:47:15;100.35;;;57.03;;
21014;SDS011;19207;-23.482;-46.500;2023-03-23T06:50:03;102.65;;;57.17;;
21014;SDS011;19207;-23.482;-46.500;2023-03-23T06:52:50;116.50;;;60.08;;
21014;SDS011;19207;-23.482;-46.500;2023-03-23T06:55:37;101.90;;;45.88;;
21014;SDS011;19207;-23.482;-46.500;2023-03-23T06:58:24;77.50;;;31.00;;
21014;SDS011;19207;-23.482;-46.500;2023-03-23T07:01:15;57.42;;;24.48;;
21014;SDS011;19207;-23.482;-46.500;2023-03-23T07:04:02;49.35;;;21.37;;
21014;SDS011;19207;-23.482;-46.500;2023-03-23T07:06:49;64.03;;;31.65;;
21014;SDS011;19207;-23.482;-46.500;2023-03-23T07:09:36;66.80;;;34.92;;
21014;SDS011;19207;-23.482;-46.500;2023-03-23T07:12:24;53.30;;;27.65;;
21014;SDS011;19207;-23.482;-46.500;2023-03-23T07:15:12;50.63;;;23.80;;
21014;SDS011;19207;-23.482;-46.500;2023-03-23T07:17:59;42.88;;;23.33;;
21014;SDS011;19207;-23.482;-46.500;2023-03-23T07:20:49;30.60;;;19.98;;
21014;SDS011;19207;-23.482;-46.500;2023-03-23T07:23:36;49.00;;;27.85;;
21014;SDS011;19207;-23.482;-46.500;2023-03-23T07:26:23;53.45;;;28.92;;
21014;SDS011;19207;-23.482;-46.500;2023-03-23T07:29:10;123.75;;;50.15;;
21014;SDS011;19207;-23.482;-46.500;2023-03-23T07:31:57;79.40;;;42.45;;
21014;SDS011;19207;-23.482;-46.500;2023-03-23T07:34:43;44.45;;;23.77;;
21014;SDS011;19207;-23.482;-46.500;2023-03-23T07:37:31;43.47;;;23.75;;
21014;SDS011;19207;-23.482;-46.500;2023-03-23T07:40:18;41.92;;;22.77;;
21014;SDS011;19207;-23.482;-46.500;2023-03-23T07:43:05;51.35;;;23.95;;
21014;SDS011;19207;-23.482;-46.500;2023-03-23T07:45:52;53.92;;;22.98;;
21014;SDS011;19207;-23.482;-46.500;2023-03-23T07:48:40;48.95;;;24.05;;
21014;SDS011;19207;-23.482;-46.500;2023-03-23T07:51:27;53.92;;;26.42;;
21014;SDS011;19207;-23.482;-46.500;2023-03-23T07:54:14;74.47;;;32.88;;
21014;SDS011;19207;-23.482;-46.500;2023-03-23T07:57:01;81.15;;;35.72;;
21014;SDS011;19207;-23.482;-46.500;2023-03-23T07:59:48;71.25;;;33.45;;
21014;SDS011;19207;-23.482;-46.500;2023-03-23T08:02:34;86.78;;;37.33;;
21014;SDS011;19207;-23.482;-46.500;2023-03-23T08:05:22;86.20;;;38.38;;
21014;SDS011;19207;-23.482;-46.500;2023-03-23T08:08:11;75.87;;;33.50;;
21014;SDS011;19207;-23.482;-46.500;2023-03-23T08:10:59;57.10;;;28.58;;
21014;SDS011;19207;-23.482;-46.500;2023-03-23T08:13:49;41.25;;;20.62;;
21014;SDS011;19207;-23.482;-46.500;2023-03-23T08:16:36;43.70;;;21.83;;
21014;SDS011;19207;-23.482;-46.500;2023-03-23T08:19:24;57.60;;;27.20;;
21014;SDS011;19207;-23.482;-46.500;2023-03-23T08:22:11;40.33;;;20.17;;
21014;SDS011;19207;-23.482;-46.500;2023-03-23T08:24:58;33.42;;;18.40;;
21014;SDS011;19207;-23.482;-46.500;2023-03-23T08:27:46;55.95;;;27.85;;
21014;SDS011;19207;-23.482;-46.500;2023-03-23T08:30:33;69.37;;;37.03;;
21014;SDS011;19207;-23.482;-46.500;2023-03-23T08:33:21;129.23;;;73.30;;
21014;SDS011;19207;-23.482;-46.500;2023-03-23T08:36:08;148.15;;;80.75;;
21014;SDS011;19207;-23.482;-46.500;2023-03-23T08:38:56;191.45;;;103.50;;
21014;SDS011;19207;-23.482;-46.500;2023-03-23T08:41:44;184.77;;;104.12;;
21014;SDS011;19207;-23.482;-46.500;2023-03-23T08:44:32;199.60;;;112.57;;
21014;SDS011;19207;-23.482;-46.500;2023-03-23T08:47:19;172.25;;;94.87;;
21014;SDS011;19207;-23.482;-46.500;2023-03-23T08:50:07;109.93;;;51.28;;
21014;SDS011;19207;-23.482;-46.500;2023-03-23T08:52:56;72.05;;;35.40;;
21014;SDS011;19207;-23.482;-46.500;2023-03-23T08:55:45;67.32;;;32.00;;
21014;SDS011;19207;-23.482;-46.500;2023-03-23T08:58:32;60.08;;;26.87;;
21014;SDS011;19207;-23.482;-46.500;2023-03-23T09:01:19;57.42;;;28.02;;
21014;SDS011;19207;-23.482;-46.500;2023-03-23T09:04:07;54.97;;;26.20;;
21014;SDS011;19207;-23.482;-46.500;2023-03-23T09:06:56;90.45;;;42.10;;
21014;SDS011;19207;-23.482;-46.500;2023-03-23T09:09:43;97.18;;;53.10;;
21014;SDS011;19207;-23.482;-46.500;2023-03-23T09:12:30;72.40;;;37.75;;
21014;SDS011;19207;-23.482;-46.500;2023-03-23T09:15:18;69.72;;;35.03;;
21014;SDS011;19207;-23.482;-46.500;2023-03-23T09:18:05;69.32;;;32.05;;
21014;SDS011;19207;-23.482;-46.500;2023-03-23T09:20:52;67.82;;;28.42;;
21014;SDS011;19207;-23.482;-46.500;2023-03-23T09:23:39;57.22;;;26.83;;
21014;SDS011;19207;-23.482;-46.500;2023-03-23T09:26:29;54.40;;;24.92;;
21014;SDS011;19207;-23.482;-46.500;2023-03-23T09:29:16;44.97;;;21.77;;
21014;SDS011;19207;-23.482;-46.500;2023-03-23T09:32:03;34.55;;;18.87;;
21014;SDS011;19207;-23.482;-46.500;2023-03-23T09:34:50;36.38;;;18.25;;
21014;SDS011;19207;-23.482;-46.500;2023-03-23T09:37:40;33.72;;;18.70;;
21014;SDS011;19207;-23.482;-46.500;2023-03-23T09:49:11;44.03;;;23.45;;
21014;SDS011;19207;-23.482;-46.500;2023-03-23T09:52:04;44.95;;;20.85;;
21014;SDS011;19207;-23.482;-46.500;2023-03-23T09:54:52;39.30;;;19.92;;
21014;SDS011;19207;-23.482;-46.500;2023-03-23T10:00:48;35.50;;;18.17;;
21014;SDS011;19207;-23.482;-46.500;2023-03-23T10:03:40;36.83;;;19.73;;
21014;SDS011;19207;-23.482;-46.500;2023-03-23T10:06:28;44.88;;;20.08;;
21014;SDS011;19207;-23.482;-46.500;2023-03-23T10:09:15;70.10;;;40.80;;
21014;SDS011;19207;-23.482;-46.500;2023-03-23T10:15:16;44.15;;;21.60;;
21014;SDS011;19207;-23.482;-46.500;2023-03-23T10:18:12;46.45;;;20.75;;
21014;SDS011;19207;-23.482;-46.500;2023-03-23T10:21:01;37.42;;;18.33;;
21014;SDS011;19207;-23.482;-46.500;2023-03-23T10:29:32;38.92;;;18.98;;
21014;SDS011;19207;-23.482;-46.500;2023-03-23T10:32:34;36.00;;;17.70;;
21014;SDS011;19207;-23.482;-46.500;2023-03-23T10:35:25;35.53;;;17.48;;
21014;SDS011;19207;-23.482;-46.500;2023-03-23T10:38:14;56.10;;;27.58;;
21014;SDS011;19207;-23.482;-46.500;2023-03-23T10:41:15;70.65;;;35.28;;
21014;SDS011;19207;-23.482;-46.500;2023-03-23T10:44:12;82.90;;;35.90;;
21014;SDS011;19207;-23.482;-46.500;2023-03-23T10:47:04;76.18;;;36.58;;
21014;SDS011;19207;-23.482;-46.500;2023-03-23T10:49:58;56.60;;;28.77;;
21014;SDS011;19207;-23.482;-46.500;2023-03-23T10:52:45;41.97;;;22.20;;
21014;SDS011;19207;-23.482;-46.500;2023-03-23T10:55:40;32.53;;;16.30;;
21014;SDS011;19207;-23.482;-46.500;2023-03-23T10:58:29;38.05;;;16.55;;
21014;SDS011;19207;-23.482;-46.500;2023-03-23T11:01:18;26.95;;;14.93;;
21014;SDS011;19207;-23.482;-46.500;2023-03-23T11:04:10;21.77;;;13.50;;
21014;SDS011;19207;-23.482;-46.500;2023-03-23T11:06:59;24.67;;;14.00;;
21014;SDS011;19207;-23.482;-46.500;2023-03-23T11:09:54;24.37;;;13.90;;
21014;SDS011;19207;-23.482;-46.500;2023-03-23T11:12:45;33.05;;;16.90;;
21014;SDS011;19207;-23.482;-46.500;2023-03-23T11:15:40;53.03;;;24.45;;
21014;SDS011;19207;-23.482;-46.500;2023-03-23T11:21:21;32.38;;;18.50;;
21014;SDS011;19207;-23.482;-46.500;2023-03-23T11:24:08;52.08;;;29.35;;
21014;SDS011;19207;-23.482;-46.500;2023-03-23T11:26:56;40.53;;;23.23;;
21014;SDS011;19207;-23.482;-46.500;2023-03-23T11:29:48;74.65;;;41.90;;
21014;SDS011;19207;-23.482;-46.500;2023-03-23T11:32:37;44.97;;;19.45;;
21014;SDS011;19207;-23.482;-46.500;2023-03-23T11:35:29;38.08;;;18.73;;
21014;SDS011;19207;-23.482;-46.500;2023-03-23T11:38:19;30.92;;;14.82;;
21014;SDS011;19207;-23.482;-46.500;2023-03-23T11:41:11;19.58;;;10.93;;
21014;SDS011;19207;-23.482;-46.500;2023-03-23T11:44:01;31.10;;;13.70;;
21014;SDS011;19207;-23.482;-46.500;2023-03-23T11:47:07;29.55;;;14.13;;
21014;SDS011;19207;-23.482;-46.500;2023-03-23T11:56:45;45.17;;;19.50;;
21014;SDS011;19207;-23.482;-46.500;2023-03-23T11:59:26;35.88;;;18.30;;
21014;SDS011;19207;-23.482;-46.500;2023-03-23T12:05:30;32.10;;;15.50;;
21014;SDS011;19207;-23.482;-46.500;2023-03-23T12:08:22;39.25;;;18.10;;
21014;SDS011;19207;-23.482;-46.500;2023-03-23T12:11:19;21.92;;;12.77;;
21014;SDS011;19207;-23.482;-46.500;2023-03-23T12:17:14;26.87;;;12.60;;
21014;SDS011;19207;-23.482;-46.500;2023-03-23T12:20:10;17.20;;;10.10;;
21014;SDS011;19207;-23.482;-46.500;2023-03-23T12:26:10;23.83;;;12.13;;
21014;SDS011;19207;-23.482;-46.500;2023-03-23T12:52:59;16.35;;;10.00;;
21014;SDS011;19207;-23.482;-46.500;2023-03-23T12:58:44;27.00;;;11.95;;
21014;SDS011;19207;-23.482;-46.500;2023-03-23T13:01:35;24.77;;;10.88;;
21014;SDS011;19207;-23.482;-46.500;2023-03-23T13:04:35;23.02;;;11.57;;
21014;SDS011;19207;-23.482;-46.500;2023-03-23T13:07:29;26.48;;;12.65;;
21014;SDS011;19207;-23.482;-46.500;2023-03-23T13:16:23;25.15;;;10.57;;
21014;SDS011;19207;-23.482;-46.500;2023-03-23T13:19:51;19.80;;;8.75;;
21014;SDS011;19207;-23.482;-46.500;2023-03-23T13:28:30;29.25;;;12.18;;
21014;SDS011;19207;-23.482;-46.500;2023-03-23T13:31:27;25.77;;;12.10;;
21014;SDS011;19207;-23.482;-46.500;2023-03-23T13:34:24;31.35;;;13.20;;
21014;SDS011;19207;-23.482;-46.500;2023-03-23T13:37:26;20.92;;;11.68;;
21014;SDS011;19207;-23.482;-46.500;2023-03-23T13:40:25;32.58;;;12.43;;
21014;SDS011;19207;-23.482;-46.500;2023-03-23T13:43:31;27.58;;;12.73;;
21014;SDS011;19207;-23.482;-46.500;2023-03-23T13:52:05;20.15;;;10.77;;
21014;SDS011;19207;-23.482;-46.500;2023-03-23T13:55:08;20.52;;;11.27;;
21014;SDS011;19207;-23.482;-46.500;2023-03-23T14:03:59;24.98;;;12.15;;
21014;SDS011;19207;-23.482;-46.500;2023-03-23T14:06:50;30.45;;;14.63;;
21014;SDS011;19207;-23.482;-46.500;2023-03-23T14:09:39;24.42;;;14.82;;
21014;SDS011;19207;-23.482;-46.500;2023-03-23T14:12:28;23.17;;;13.07;;
21014;SDS011;19207;-23.482;-46.500;2023-03-23T14:15:17;26.48;;;14.95;;
21014;SDS011;19207;-23.482;-46.500;2023-03-23T14:18:07;19.60;;;13.07;;
21014;SDS011;19207;-23.482;-46.500;2023-03-23T14:21:00;26.45;;;14.05;;
21014;SDS011;19207;-23.482;-46.500;2023-03-23T14:23:49;29.52;;;13.82;;
21014;SDS011;19207;-23.482;-46.500;2023-03-23T14:26:37;28.42;;;14.45;;
21014;SDS011;19207;-23.482;-46.500;2023-03-23T14:29:28;31.95;;;15.30;;
21014;SDS011;19207;-23.482;-46.500;2023-03-23T14:32:18;23.10;;;12.77;;
21014;SDS011;19207;-23.482;-46.500;2023-03-23T14:35:36;29.80;;;13.82;;
21014;SDS011;19207;-23.482;-46.500;2023-03-23T14:38:28;32.85;;;13.20;;
21014;SDS011;19207;-23.482;-46.500;2023-03-23T14:41:17;24.37;;;12.93;;
21014;SDS011;19207;-23.482;-46.500;2023-03-23T14:44:06;20.02;;;12.30;;
21014;SDS011;19207;-23.482;-46.500;2023-03-23T14:47:02;18.98;;;12.45;;
21014;SDS011;19207;-23.482;-46.500;2023-03-23T14:50:01;19.70;;;12.73;;
21014;SDS011;19207;-23.482;-46.500;2023-03-23T14:52:51;21.83;;;11.57;;
21014;SDS011;19207;-23.482;-46.500;2023-03-23T14:55:41;30.60;;;13.62;;
21014;SDS011;19207;-23.482;-46.500;2023-03-23T14:58:34;23.80;;;12.07;;
21014;SDS011;19207;-23.482;-46.500;2023-03-23T15:01:24;27.50;;;11.93;;
21014;SDS011;19207;-23.482;-46.500;2023-03-23T15:07:04;18.00;;;11.60;;
21014;SDS011;19207;-23.482;-46.500;2023-03-23T15:09:55;18.42;;;11.70;;
21014;SDS011;19207;-23.482;-46.500;2023-03-23T15:12:43;17.08;;;12.85;;
21014;SDS011;19207;-23.482;-46.500;2023-03-23T15:15:36;23.10;;;11.18;;
21014;SDS011;19207;-23.482;-46.500;2023-03-23T15:18:28;18.85;;;12.23;;
21014;SDS011;19207;-23.482;-46.500;2023-03-23T15:21:25;20.77;;;11.60;;
21014;SDS011;19207;-23.482;-46.500;2023-03-23T15:27:33;20.90;;;12.73;;
21014;SDS011;19207;-23.482;-46.500;2023-03-23T15:33:18;15.93;;;9.05;;
21014;SDS011;19207;-23.482;-46.500;2023-03-23T15:36:17;19.73;;;10.25;;
21014;SDS011;19207;-23.482;-46.500;2023-03-23T15:39:09;15.35;;;10.45;;
21014;SDS011;19207;-23.482;-46.500;2023-03-23T15:41:59;17.23;;;10.15;;
21014;SDS011;19207;-23.482;-46.500;2023-03-23T15:44:58;16.15;;;10.05;;
21014;SDS011;19207;-23.482;-46.500;2023-03-23T15:47:57;15.27;;;9.60;;
21014;SDS011;19207;-23.482;-46.500;2023-03-23T15:50:49;17.35;;;8.63;;
21014;SDS011;19207;-23.482;-46.500;2023-03-23T15:53:43;15.82;;;11.70;;
21014;SDS011;19207;-23.482;-46.500;2023-03-23T15:56:32;23.62;;;10.27;;
21014;SDS011;19207;-23.482;-46.500;2023-03-23T15:59:21;20.98;;;10.80;;
21014;SDS011;19207;-23.482;-46.500;2023-03-23T16:02:13;16.00;;;9.48;;
21014;SDS011;19207;-23.482;-46.500;2023-03-23T16:05:05;20.60;;;9.77;;
21014;SDS011;19207;-23.482;-46.500;2023-03-23T16:07:54;13.50;;;9.45;;
21014;SDS011;19207;-23.482;-46.500;2023-03-23T16:10:43;18.35;;;9.77;;
21014;SDS011;19207;-23.482;-46.500;2023-03-23T16:13:30;13.20;;;8.32;;
21014;SDS011;19207;-23.482;-46.500;2023-03-23T16:16:27;14.68;;;8.63;;
21014;SDS011;19207;-23.482;-46.500;2023-03-23T16:19:17;25.85;;;9.32;;
21014;SDS011;19207;-23.482;-46.500;2023-03-23T16:22:09;17.10;;;10.40;;
21014;SDS011;19207;-23.482;-46.500;2023-03-23T16:24:58;14.68;;;9.48;;
21014;SDS011;19207;-23.482;-46.500;2023-03-23T16:27:48;13.18;;;9.00;;
21014;SDS011;19207;-23.482;-46.500;2023-03-23T16:30:41;32.28;;;29.20;;
21014;SDS011;19207;-23.482;-46.500;2023-03-23T16:33:43;14.07;;;9.52;;
21014;SDS011;19207;-23.482;-46.500;2023-03-23T16:36:33;13.05;;;9.65;;
21014;SDS011;19207;-23.482;-46.500;2023-03-23T16:39:24;14.07;;;10.10;;
21014;SDS011;19207;-23.482;-46.500;2023-03-23T16:42:12;17.80;;;9.77;;
21014;SDS011;19207;-23.482;-46.500;2023-03-23T16:45:02;14.15;;;9.85;;
21014;SDS011;19207;-23.482;-46.500;2023-03-23T16:47:54;14.73;;;10.18;;
21014;SDS011;19207;-23.482;-46.500;2023-03-23T16:50:50;14.80;;;9.65;;
21014;SDS011;19207;-23.482;-46.500;2023-03-23T16:53:38;15.35;;;9.63;;
21014;SDS011;19207;-23.482;-46.500;2023-03-23T16:56:27;14.25;;;9.23;;
21014;SDS011;19207;-23.482;-46.500;2023-03-23T16:59:20;14.35;;;8.88;;
21014;SDS011;19207;-23.482;-46.500;2023-03-23T17:02:21;13.70;;;8.98;;
21014;SDS011;19207;-23.482;-46.500;2023-03-23T17:05:17;16.73;;;9.95;;
21014;SDS011;19207;-23.482;-46.500;2023-03-23T17:08:11;25.62;;;14.87;;
21014;SDS011;19207;-23.482;-46.500;2023-03-23T17:11:00;13.57;;;9.50;;
21014;SDS011;19207;-23.482;-46.500;2023-03-23T17:13:51;18.98;;;10.05;;
21014;SDS011;19207;-23.482;-46.500;2023-03-23T17:16:39;19.60;;;9.70;;
21014;SDS011;19207;-23.482;-46.500;2023-03-23T17:19:29;15.15;;;8.73;;
21014;SDS011;19207;-23.482;-46.500;2023-03-23T17:22:19;23.38;;;17.85;;
21014;SDS011;19207;-23.482;-46.500;2023-03-23T17:25:10;18.83;;;10.32;;
21014;SDS011;19207;-23.482;-46.500;2023-03-23T17:28:00;39.78;;;9.73;;
21014;SDS011;19207;-23.482;-46.500;2023-03-23T17:30:50;12.75;;;8.88;;
21014;SDS011;19207;-23.482;-46.500;2023-03-23T17:33:40;12.93;;;9.00;;
21014;SDS011;19207;-23.482;-46.500;2023-03-23T17:36:32;15.05;;;8.52;;
21014;SDS011;19207;-23.482;-46.500;2023-03-23T17:39:22;21.05;;;8.23;;
21014;SDS011;19207;-23.482;-46.500;2023-03-23T17:42:24;13.45;;;8.43;;
21014;SDS011;19207;-23.482;-46.500;2023-03-23T17:45:14;19.30;;;7.70;;
21014;SDS011;19207;-23.482;-46.500;2023-03-23T17:48:03;18.52;;;8.27;;
21014;SDS011;19207;-23.482;-46.500;2023-03-23T17:50:55;13.45;;;7.97;;
21014;SDS011;19207;-23.482;-46.500;2023-03-23T17:53:47;12.25;;;8.05;;
21014;SDS011;19207;-23.482;-46.500;2023-03-23T17:56:39;8.60;;;7.70;;